Time;durP1;ratioP1;P1;durP2;ratioP2;P2;SDS_P1;SDS_P2;PMS_P1;PMS_P2;Temp;Humidity;BMP_temperature;BMP_pressure;BME280_temperature;BME280_humidity;BME280_pressure;Samples;Min_cycle;Max_cycle;Signal;HPM_P1;HPM_P2
2022/05/20 00:00:28;;;;;;;5.22;4.68;;;;;;;23.53;54.68;101669.13;5037724;28;20101;-65
2022/05/20 00:02:53;;;;;;;5.05;4.65;;;;;;;23.52;54.57;101672.63;5050185;28;20036;-63
2022/05/20 00:05:19;;;;;;;4.85;4.43;;;;;;;23.53;54.73;101674.38;5044826;28;20024;-63
2022/05/20 00:07:44;;;;;;;7.82;5.03;;;;;;;23.52;54.66;101667.38;5038445;28;20039;-63
2022/05/20 00:10:11;;;;;;;5.95;5.18;;;;;;;23.52;54.48;101662.09;5065933;28;20032;-64
2022/05/20 00:12:37;;;;;;;5.03;4.45;;;;;;;23.52;54.46;101662.09;5032321;28;20029;-63
2022/05/20 00:15:07;;;;;;;5.28;4.78;;;;;;;23.52;54.86;101656.84;5047680;28;20029;-62
2022/05/20 00:17:32;;;;;;;6.60;5.25;;;;;;;23.49;54.73;101641.94;5048019;28;20357;-62
2022/05/20 00:19:57;;;;;;;6.35;4.90;;;;;;;23.51;55.07;101660.34;5050869;28;20081;-64
2022/05/20 00:22:23;;;;;;;6.32;5.00;;;;;;;23.45;54.74;101649.75;5041993;28;20017;-63
2022/05/20 00:27:34;;;;;;;5.07;4.63;;;;;;;23.49;54.78;101648.94;5043729;28;20032;-63
2022/05/20 00:29:59;;;;;;;5.55;4.70;;;;;;;23.49;54.75;101652.47;5043272;28;20074;-61
2022/05/20 00:32:25;;;;;;;6.93;4.93;;;;;;;23.49;54.87;101654.19;5043528;28;20028;-63
2022/05/20 00:34:50;;;;;;;5.32;4.82;;;;;;;23.49;54.88;101656.81;5039257;28;20100;-64
2022/05/20 00:37:16;;;;;;;6.55;4.95;;;;;;;23.49;54.63;101654.19;5043934;28;20032;-63
2022/05/20 00:39:41;;;;;;;5.25;4.75;;;;;;;23.48;54.38;101655.94;5044001;28;20024;-63
2022/05/20 00:42:17;;;;;;;5.20;3.90;;;;;;;23.48;54.81;101655.06;5034195;28;20473;-63
2022/05/20 00:44:43;;;;;;;6.05;3.88;;;;;;;23.46;53.89;101659.41;5092615;22;20499;-53
2022/05/20 00:47:11;;;;;;;4.50;4.10;;;;;;;23.38;54.47;101638.31;5029110;28;20040;-51
2022/05/20 00:49:37;;;;;;;7.18;5.07;;;;;;;23.47;54.06;101653.28;4995432;28;20025;-59
2022/05/20 00:52:04;;;;;;;6.38;4.90;;;;;;;23.45;54.49;101660.28;5009199;28;20087;-56
2022/05/20 00:54:43;;;;;;;4.38;3.97;;;;;;;23.47;54.25;101663.81;5021691;28;20704;-56
2022/05/20 00:57:15;;;;;;;6.40;4.63;;;;;;;23.47;54.59;101661.19;5007640;28;20061;-54
2022/05/20 00:59:43;;;;;;;5.55;4.97;;;;;;;23.45;54.09;101655.03;5004422;28;20442;-57
2022/05/20 01:02:15;;;;;;;7.03;4.97;;;;;;;23.47;54.51;101653.28;5014873;28;20033;-59
2022/05/20 01:04:43;;;;;;;4.78;4.32;;;;;;;23.46;54.28;101673.44;4992985;28;20037;-56
2022/05/20 01:07:11;;;;;;;6.97;4.75;;;;;;;23.47;53.77;101674.31;5014453;28;20111;-58
2022/05/20 01:09:37;;;;;;;4.80;4.40;;;;;;;23.47;54.52;101684.84;5013227;28;20032;-50
2022/05/20 01:12:03;;;;;;;6.50;4.18;;;;;;;23.45;53.91;101691.81;4997106;28;20036;-56
2022/05/20 01:14:29;;;;;;;5.55;4.53;;;;;;;23.45;53.72;101689.19;5014149;28;20128;-51
2022/05/20 01:16:54;;;;;;;5.57;3.85;;;;;;;23.46;53.95;101698.84;5013968;28;20127;-53
2022/05/20 01:19:36;;;;;;;7.45;4.88;;;;;;;23.46;53.46;101699.75;5013169;28;20029;-55
2022/05/20 01:22:03;;;;;;;5.80;5.00;;;;;;;23.46;53.66;101709.34;5013702;28;20041;-57
2022/05/20 01:24:29;;;;;;;7.85;4.93;;;;;;;23.44;53.31;101708.47;4997739;28;20120;-54
2022/05/20 01:26:54;;;;;;;5.22;4.57;;;;;;;23.46;53.34;101714.63;5013096;28;20121;-56
2022/05/20 01:29:22;;;;;;;6.20;3.97;;;;;;;23.47;53.55;101716.38;4997490;28;20022;-55
2022/05/20 01:31:48;;;;;;;4.57;4.18;;;;;;;23.47;53.51;101713.75;5012456;28;20045;-57
2022/05/20 01:34:13;;;;;;;9.10;4.43;;;;;;;23.44;53.73;101711.09;4997898;28;20029;-57
2022/05/20 01:36:38;;;;;;;4.65;4.03;;;;;;;23.45;53.23;101720.75;5007289;28;20061;-51
2022/05/20 01:39:05;;;;;;;9.40;4.97;;;;;;;23.45;53.64;101728.63;5023247;28;20462;-57
2022/05/20 01:41:39;;;;;;;5.22;4.75;;;;;;;23.46;52.89;101733.03;5013910;28;20083;-53
2022/05/20 01:44:11;;;;;;;4.57;4.20;;;;;;;23.45;53.48;101741.78;5013920;28;20037;-56
2022/05/20 01:46:55;;;;;;;5.65;4.63;;;;;;;23.42;53.07;101739.09;5014159;28;20029;-59
2022/05/20 01:49:44;;;;;;;6.53;4.67;;;;;;;23.44;52.93;101755.78;5007244;28;20053;-58
2022/05/20 01:52:24;;;;;;;5.20;4.65;;;;;;;23.36;52.92;101739.03;5036857;28;20114;-51
2022/05/20 01:55:20;;;;;;;4.90;4.15;;;;;;;23.43;52.39;101751.38;4997867;28;20061;-55
2022/05/20 01:58:07;;;;;;;5.35;3.83;;;;;;;23.36;52.90;101744.28;5014250;28;20129;-54
2022/05/20 02:00:36;;;;;;;5.55;5.05;;;;;;;23.40;52.99;101743.47;5032027;28;20056;-56
2022/05/20 02:03:17;;;;;;;7.45;5.00;;;;;;;23.38;53.01;101743.44;5007691;28;20481;-57
2022/05/20 02:05:47;;;;;;;5.45;4.55;;;;;;;23.38;52.75;101748.72;5016974;28;20433;-57
2022/05/20 02:08:17;;;;;;;10.48;4.60;;;;;;;23.38;52.38;101753.06;5010573;28;20475;-54
2022/05/20 02:10:57;;;;;;;5.90;5.32;;;;;;;23.35;53.10;101748.66;5014451;28;20492;-57
2022/05/20 02:13:23;;;;;;;5.40;4.90;;;;;;;23.36;52.58;101762.69;5035594;28;20030;-54
2022/05/20 02:15:53;;;;;;;4.88;4.38;;;;;;;23.38;52.59;101763.59;5014624;28;20065;-59
2022/05/20 02:18:31;;;;;;;4.43;3.92;;;;;;;23.39;52.38;101762.72;5017590;28;20136;-55
2022/05/20 02:21:05;;;;;;;6.90;4.38;;;;;;;23.39;52.52;101770.59;5017152;28;20096;-57
2022/05/20 02:23:34;;;;;;;5.95;5.03;;;;;;;23.38;52.08;101755.69;5000976;28;20042;-56
2022/05/20 02:26:15;;;;;;;4.60;4.20;;;;;;;23.38;52.63;101760.94;5016331;28;20041;-55
2022/05/20 02:28:43;;;;;;;6.45;5.43;;;;;;;23.38;52.55;101771.47;5024878;28;20382;-56
2022/05/20 02:31:13;;;;;;;4.32;3.92;;;;;;;23.38;52.54;101769.75;5014686;28;20033;-53
2022/05/20 02:33:38;;;;;;;4.10;3.72;;;;;;;23.38;51.95;101774.09;5000461;28;20026;-48
2022/05/20 02:36:25;;;;;;;4.93;4.20;;;;;;;23.36;51.41;101770.56;5033505;28;20108;-56
2022/05/20 02:38:50;;;;;;;4.28;3.88;;;;;;;23.36;52.06;101770.56;5011566;28;20037;-55
2022/05/20 02:41:16;;;;;;;4.82;4.43;;;;;;;23.34;51.86;101768.78;5015331;28;20051;-53
2022/05/20 02:43:45;;;;;;;7.80;4.35;;;;;;;23.36;51.84;101775.81;5030086;28;20084;-55
2022/05/20 02:46:14;;;;;;;5.38;3.83;;;;;;;23.37;52.13;101772.34;4999929;28;20038;-54
2022/05/20 02:48:42;;;;;;;3.88;3.58;;;;;;;23.32;51.60;101788.91;5016477;28;20393;-53
2022/05/20 02:51:08;;;;;;;5.22;3.53;;;;;;;23.34;51.30;101781.94;5037455;28;20064;-57
2022/05/20 02:53:33;;;;;;;4.80;3.63;;;;;;;23.32;51.43;101780.13;5004059;28;20053;-53
2022/05/20 02:56:00;;;;;;;6.47;4.03;;;;;;;23.36;51.31;101791.59;5016522;28;20041;-57
2022/05/20 03:04:09;;;;;;;6.88;3.08;;;;;;;23.32;51.18;101786.28;5033436;28;20135;-55
2022/05/20 03:06:56;;;;;;;5.63;4.07;;;;;;;23.33;50.97;101782.81;5018316;28;20032;-51
2022/05/20 03:09:23;;;;;;;4.70;3.55;;;;;;;23.33;50.95;101777.53;5022719;28;20060;-54
2022/05/20 03:11:49;;;;;;;4.30;2.60;;;;;;;23.32;51.23;101778.41;4999385;28;20486;-56
2022/05/20 03:14:16;;;;;;;7.75;3.30;;;;;;;23.33;51.30;101772.28;5016050;28;20037;-56
2022/05/20 03:16:42;;;;;;;2.92;2.63;;;;;;;23.34;51.00;101784.56;5000366;28;20344;-57
2022/05/20 03:19:07;;;;;;;3.47;3.17;;;;;;;23.34;51.41;101795.09;4999201;28;20040;-55
2022/05/20 03:21:36;;;;;;;4.68;3.20;;;;;;;23.34;50.32;101794.22;5034621;28;20026;-55
2022/05/20 03:24:06;;;;;;;4.85;2.60;;;;;;;23.34;50.92;101783.69;4998667;28;20033;-55
2022/05/20 03:26:32;;;;;;;2.83;2.63;;;;;;;23.33;50.37;101790.69;4993475;28;20022;-54
2022/05/20 03:28:59;;;;;;;3.20;2.38;;;;;;;23.31;50.28;101789.78;4994908;28;20029;-54
2022/05/20 03:31:25;;;;;;;4.72;2.88;;;;;;;23.32;50.59;101788.91;5015766;28;20534;-55
2022/05/20 03:33:50;;;;;;;4.63;2.35;;;;;;;23.29;50.08;101796.75;5019249;28;20041;-58
2022/05/20 03:36:16;;;;;;;2.65;2.45;;;;;;;23.29;50.35;101791.50;5033536;28;20033;-53
2022/05/20 03:38:43;;;;;;;2.55;2.35;;;;;;;23.30;50.08;101792.38;5011772;28;20055;-53
2022/05/20 03:41:10;;;;;;;3.85;2.20;;;;;;;23.29;50.58;101788.88;5014633;28;20053;-61
2022/05/20 03:43:36;;;;;;;4.00;3.03;;;;;;;23.29;50.14;101791.50;5031869;28;20540;-56
2022/05/20 03:46:01;;;;;;;2.45;2.13;;;;;;;23.28;50.22;101784.47;5015601;28;20037;-54
2022/05/20 03:48:27;;;;;;;3.33;2.50;;;;;;;23.19;50.13;101769.41;5029669;28;20033;-55
2022/05/20 03:50:52;;;;;;;4.50;2.85;;;;;;;23.27;50.27;101793.22;4998881;28;20034;-52
2022/05/20 03:53:18;;;;;;;2.83;2.60;;;;;;;23.27;49.65;101798.47;4995902;28;20028;-53
2022/05/20 03:55:44;;;;;;;1.98;1.85;;;;;;;23.26;49.57;101790.56;5007429;28;20038;-57
2022/05/20 03:58:09;;;;;;;3.13;2.35;;;;;;;23.25;50.40;101789.69;5014949;28;20061;-55
2022/05/20 04:01:56;;;;;;;3.65;2.35;;;;;;;23.26;49.87;101790.56;5015393;28;20033;-54
2022/05/20 04:03:22;;;;;;;2.17;1.98;;;;;;;23.27;49.99;101787.97;5011917;28;20120;-54
2022/05/20 04:05:48;;;;;;;4.15;1.83;;;;;;;23.27;50.15;101789.69;5006746;28;20128;-51
2022/05/20 04:08:14;;;;;;;2.17;1.95;;;;;;;23.27;49.83;101803.75;5007942;28;20124;-57
2022/05/20 04:10:42;;;;;;;2.35;2.22;;;;;;;23.25;49.21;101800.19;5016022;28;20128;-55
2022/05/20 04:13:07;;;;;;;5.93;2.65;;;;;;;23.23;49.34;101801.91;5027610;28;20029;-56
2022/05/20 04:15:33;;;;;;;2.92;2.63;;;;;;;23.27;49.59;101797.59;5015756;28;20033;-55
2022/05/20 04:17:58;;;;;;;2.50;2.05;;;;;;;23.26;49.14;101801.97;5015407;28;20037;-57
2022/05/20 04:20:23;;;;;;;1.70;1.60;;;;;;;23.24;48.97;101797.53;5013393;28;20049;-55
2022/05/20 04:22:52;;;;;;;2.45;2.25;;;;;;;23.25;49.29;101802.84;5013661;28;20037;-55
2022/05/20 04:25:17;;;;;;;2.55;2.35;;;;;;;23.25;49.17;101810.72;5014338;28;20037;-53
2022/05/20 04:27:42;;;;;;;2.40;2.20;;;;;;;23.23;49.18;101812.41;5033102;28;20112;-56
2022/05/20 04:30:08;;;;;;;4.25;2.47;;;;;;;23.25;49.31;101818.59;5013980;28;20112;-55
2022/05/20 04:32:37;;;;;;;3.30;2.08;;;;;;;23.26;49.19;101817.75;5031655;28;20451;-56
2022/05/20 04:35:02;;;;;;;2.42;2.30;;;;;;;23.24;48.94;101819.47;5015909;28;20035;-57
2022/05/20 04:37:28;;;;;;;2.13;1.90;;;;;;;23.25;49.35;101830.84;5008897;28;20030;-58
2022/05/20 04:39:53;;;;;;;2.00;1.80;;;;;;;23.24;49.43;101829.97;5026910;28;20055;-55
2022/05/20 04:47:48;;;;;;;2.58;2.33;;;;;;;23.25;49.19;101837.00;5016799;28;20112;-55
2022/05/20 04:50:14;;;;;;;3.58;1.95;;;;;;;23.25;48.75;101847.50;5004546;28;20449;-55
2022/05/20 04:52:39;;;;;;;1.77;1.67;;;;;;;23.25;48.70;101858.03;5027434;28;20740;-56
2022/05/20 04:55:05;;;;;;;2.28;2.15;;;;;;;23.18;48.50;101850.88;5024407;28;20029;-54
2022/05/20 04:57:32;;;;;;;1.83;1.73;;;;;;;23.25;49.10;101855.41;5014992;28;20029;-55
2022/05/20 05:00:05;;;;;;;2.88;2.65;;;;;;;23.26;48.82;101859.78;5014314;28;20379;-53
2022/05/20 05:02:31;;;;;;;2.60;2.27;;;;;;;23.25;48.52;101857.13;5011262;28;20459;-55
2022/05/20 05:04:57;;;;;;;3.47;2.20;;;;;;;23.26;48.68;101859.78;4998148;28;20053;-55
2022/05/20 05:07:22;;;;;;;2.20;2.10;;;;;;;23.24;48.14;101851.00;5031723;28;20103;-55
2022/05/20 05:09:47;;;;;;;2.13;1.95;;;;;;;23.27;48.54;101861.56;5028933;28;20437;-55
2022/05/20 05:12:14;;;;;;;3.17;1.73;;;;;;;23.27;48.45;101866.81;5006539;28;20121;-51
2022/05/20 05:14:51;;;;;;;3.35;2.00;;;;;;;23.27;48.30;101861.56;5010631;28;20040;-56
2022/05/20 05:20:15;;;;;;;3.03;2.08;;;;;;;23.27;48.45;101865.91;5005573;28;20045;-50
2022/05/20 05:22:40;;;;;;;5.38;2.45;;;;;;;23.29;48.60;101865.09;4997912;28;20128;-55
2022/05/20 05:25:06;;;;;;;1.80;1.70;;;;;;;23.27;48.18;101856.31;5026550;28;20104;-53
2022/05/20 05:27:32;;;;;;;4.80;2.00;;;;;;;23.28;48.01;101858.06;4988907;28;20037;-55
2022/05/20 05:29:57;;;;;;;2.10;1.88;;;;;;;23.28;48.48;101863.31;5013522;28;20025;-53
2022/05/20 05:32:23;;;;;;;2.08;1.77;;;;;;;23.26;47.80;101854.53;5030509;28;20402;-51
2022/05/20 05:34:48;;;;;;;2.38;2.17;;;;;;;23.24;48.28;101857.97;5013456;28;20030;-54
2022/05/20 05:37:13;;;;;;;7.25;2.28;;;;;;;23.27;48.26;101866.81;4989880;28;20036;-54
2022/05/20 05:39:39;;;;;;;2.72;2.03;;;;;;;23.28;48.13;101863.31;5030816;28;20437;-56
2022/05/20 05:42:04;;;;;;;2.60;1.95;;;;;;;23.28;48.35;101858.06;5027642;28;20360;-56
2022/05/20 05:44:30;;;;;;;1.75;1.60;;;;;;;23.30;47.71;101872.13;5008098;28;20044;-55
2022/05/20 05:46:55;;;;;;;1.90;1.80;;;;;;;23.24;48.12;101858.88;5018309;28;20522;-57
2022/05/20 05:49:22;;;;;;;4.55;2.20;;;;;;;23.31;48.23;101868.63;5025449;28;20033;-55
2022/05/20 05:51:49;;;;;;;4.65;2.45;;;;;;;23.32;47.68;101880.91;5010315;28;20069;-56
2022/05/20 05:54:16;;;;;;;2.47;1.90;;;;;;;23.33;47.97;101881.81;5029029;28;20454;-56
2022/05/20 05:56:42;;;;;;;1.98;1.88;;;;;;;23.30;48.27;101887.00;5023955;28;20026;-54
2022/05/20 05:59:07;;;;;;;9.77;2.42;;;;;;;23.32;47.73;101896.69;4997973;28;20035;-55
2022/05/20 06:01:33;;;;;;;2.00;1.80;;;;;;;23.32;48.15;101901.94;5015697;28;20259;-55
2022/05/20 06:03:58;;;;;;;4.15;2.60;;;;;;;23.22;47.08;101899.09;5012504;28;20455;-56
2022/05/20 06:06:24;;;;;;;2.55;1.63;;;;;;;23.14;46.66;101906.88;5029534;28;20038;-56
2022/05/20 06:08:49;;;;;;;1.80;1.70;;;;;;;23.13;47.39;101907.72;4997304;28;20033;-54
2022/05/20 06:11:14;;;;;;;3.80;2.45;;;;;;;23.09;47.36;101904.16;5007977;28;20029;-53
2022/05/20 06:13:42;;;;;;;3.30;2.72;;;;;;;23.11;46.96;101912.06;5013404;28;20037;-58
2022/05/20 06:16:10;;;;;;;5.15;2.13;;;;;;;23.17;47.13;101917.44;5009406;28;20069;-60
2022/05/20 06:18:38;;;;;;;2.30;2.10;;;;;;;23.28;47.48;101922.88;5004831;28;20079;-61
2022/05/20 06:21:04;;;;;;;3.28;2.42;;;;;;;23.34;47.39;101916.00;5015526;28;20098;-55
2022/05/20 06:23:29;;;;;;;9.02;2.20;;;;;;;23.32;47.06;101909.81;5014839;28;20041;-55
2022/05/20 06:25:54;;;;;;;2.97;2.70;;;;;;;23.39;47.73;101917.81;5008150;28;20452;-61
2022/05/20 06:28:20;;;;;;;3.03;2.47;;;;;;;23.39;47.27;101917.81;5007430;28;20030;-56
2022/05/20 06:30:45;;;;;;;2.17;1.98;;;;;;;23.43;47.55;101930.16;4992870;28;20033;-54
2022/05/20 06:33:12;;;;;;;4.75;2.42;;;;;;;23.45;47.82;101933.69;5027366;28;20533;-54
2022/05/20 06:41:06;;;;;;;5.07;2.05;;;;;;;23.27;47.74;101929.91;5011640;28;20037;-53
2022/05/20 06:43:32;;;;;;;9.35;3.33;;;;;;;23.30;47.31;101940.47;5008337;28;20490;-53
2022/05/20 06:48:44;;;;;;;6.05;3.30;;;;;;;23.26;47.12;101928.13;5057283;22;20055;-59
2022/05/20 06:51:12;;;;;;;3.50;2.35;;;;;;;23.26;46.57;101925.50;5066567;28;20028;-60
2022/05/20 06:53:39;;;;;;;4.13;2.05;;;;;;;23.24;47.47;101921.97;5049915;28;20036;-59
2022/05/20 06:56:05;;;;;;;3.50;2.45;;;;;;;23.24;46.82;101919.34;5064735;28;20034;-57
2022/05/20 06:58:31;;;;;;;3.80;2.40;;;;;;;23.27;47.23;101926.38;5060202;28;20024;-61
2022/05/20 07:00:59;;;;;;;4.90;2.20;;;;;;;23.30;47.42;101923.78;5067965;28;20169;-59
2022/05/20 07:03:27;;;;;;;5.00;2.50;;;;;;;23.34;47.35;101937.03;5060181;28;20027;-60
2022/05/20 07:05:52;;;;;;;8.60;2.50;;;;;;;23.37;47.47;101916.91;5072052;28;20073;-58
2022/05/20 07:08:17;;;;;;;5.72;1.52;;;;;;;23.39;47.11;101923.06;5062751;28;20111;-58
2022/05/20 07:10:43;;;;;;;6.22;2.42;;;;;;;23.39;47.34;101917.81;5075218;28;20039;-55
2022/05/20 07:13:08;;;;;;;1.90;1.77;;;;;;;23.39;47.46;101923.06;5090127;28;20339;-58
2022/05/20 07:15:34;;;;;;;4.63;2.10;;;;;;;23.36;47.51;101918.66;5071845;28;20071;-59
2022/05/20 07:17:59;;;;;;;3.53;2.25;;;;;;;23.37;47.08;101922.16;5063140;28;20027;-58
2022/05/20 07:20:24;;;;;;;3.38;2.05;;;;;;;23.36;46.98;101923.03;5063881;28;20036;-55
2022/05/20 07:22:50;;;;;;;4.95;2.20;;;;;;;23.33;47.35;101919.47;5087908;28;20063;-58
2022/05/20 07:25:19;;;;;;;2.03;1.80;;;;;;;23.33;47.35;101919.47;5084669;28;20465;-57
2022/05/20 07:27:45;;;;;;;3.85;1.92;;;;;;;23.34;46.83;101920.38;5059918;28;20035;-56
2022/05/20 07:30:11;;;;;;;3.28;2.22;;;;;;;23.36;47.12;101929.19;5076593;28;20027;-59
2022/05/20 07:32:37;;;;;;;4.22;1.90;;;;;;;23.37;47.27;101924.78;5069742;28;20032;-59
2022/05/20 07:35:02;;;;;;;2.70;2.47;;;;;;;23.36;47.34;101917.75;5058289;28;20034;-60
2022/05/20 07:37:28;;;;;;;2.53;2.13;;;;;;;23.36;46.72;101923.03;5073509;28;20118;-59
2022/05/20 07:39:53;;;;;;;1.85;1.75;;;;;;;23.31;47.48;101910.69;5085361;28;20461;-60
2022/05/20 07:42:18;;;;;;;2.03;1.90;;;;;;;23.37;46.85;101914.28;5066842;28;20537;-60
2022/05/20 07:44:44;;;;;;;12.05;2.25;;;;;;;23.38;46.33;101918.66;5057870;28;20428;-60
2022/05/20 07:47:09;;;;;;;2.30;2.03;;;;;;;23.37;46.45;101916.91;5067022;28;20050;-59
2022/05/20 07:49:35;;;;;;;2.13;1.92;;;;;;;23.32;46.93;101912.47;5071642;28;20068;-60
2022/05/20 07:52:02;;;;;;;8.25;2.53;;;;;;;23.39;47.06;101928.31;5053534;28;20481;-61
2022/05/20 07:54:31;;;;;;;3.08;1.95;;;;;;;23.37;46.69;101903.75;5069413;28;20029;-60
2022/05/20 07:57:00;;;;;;;6.28;2.00;;;;;;;23.41;46.83;101910.84;5047673;28;20051;-59
2022/05/20 07:59:32;;;;;;;2.10;1.77;;;;;;;23.41;46.62;101905.56;5074059;28;20031;-60
2022/05/20 08:01:59;;;;;;;2.25;1.88;;;;;;;23.40;46.70;101895.94;5055653;28;20431;-60
2022/05/20 08:07:13;;;;;;;2.47;1.90;;;;;;;23.42;46.58;101902.09;5058579;28;20052;-61
2022/05/20 08:09:39;;;;;;;3.60;2.10;;;;;;;23.43;46.54;101888.09;5075622;28;20031;-60
2022/05/20 08:12:06;;;;;;;2.28;2.15;;;;;;;23.46;46.73;101902.19;5092479;28;20135;-58
2022/05/20 08:14:31;;;;;;;5.05;2.25;;;;;;;23.50;46.12;101908.34;5093029;28;20042;-60
2022/05/20 08:16:58;;;;;;;2.60;2.38;;;;;;;23.53;46.95;101899.63;5088665;28;20107;-60
2022/05/20 08:19:24;;;;;;;1.92;1.83;;;;;;;23.52;46.42;101898.75;5068619;28;20040;-60
2022/05/20 08:21:49;;;;;;;1.60;1.50;;;;;;;23.48;46.24;101887.31;5054977;28;20031;-60
2022/05/20 08:24:14;;;;;;;2.15;1.85;;;;;;;23.47;46.45;101879.38;5068710;28;20068;-60
2022/05/20 08:26:40;;;;;;;4.72;1.98;;;;;;;23.46;46.46;101886.41;5069590;28;20032;-60
2022/05/20 08:29:06;;;;;;;3.22;1.90;;;;;;;23.44;46.38;101874.06;5058685;28;20040;-60
2022/05/20 08:31:33;;;;;;;2.13;1.88;;;;;;;23.44;46.61;101874.06;5074474;28;20031;-60
2022/05/20 08:33:59;;;;;;;3.97;2.33;;;;;;;23.41;46.29;101848.66;5091115;28;20028;-59
2022/05/20 08:36:29;;;;;;;2.20;1.58;;;;;;;23.38;46.15;101847.69;5051102;28;20033;-60
2022/05/20 08:38:56;;;;;;;2.55;1.58;;;;;;;23.42;45.61;101860.03;5072408;28;20134;-59
2022/05/20 08:41:26;;;;;;;1.77;1.65;;;;;;;23.41;45.86;101859.16;5074304;28;20054;-60
2022/05/20 08:43:51;;;;;;;3.95;2.00;;;;;;;23.41;45.62;101839.84;5063881;28;20040;-60
2022/05/20 08:46:18;;;;;;;2.80;1.92;;;;;;;23.41;45.96;101837.22;5065767;28;20028;-59
2022/05/20 08:48:45;;;;;;;5.40;2.17;;;;;;;23.42;46.12;101839.00;5071396;28;20493;-59
2022/05/20 08:51:10;;;;;;;2.72;2.17;;;;;;;23.42;46.15;101828.47;5068053;28;20036;-60
2022/05/20 08:53:47;;;;;;;9.82;2.08;;;;;;;23.44;45.44;101847.78;5091062;28;20032;-60
2022/05/20 08:56:15;;;;;;;5.00;1.77;;;;;;;23.44;45.17;101834.66;5090014;28;20172;-60
2022/05/20 08:58:49;;;;;;;7.40;2.38;;;;;;;23.44;46.06;101827.66;5064841;28;20028;-60
2022/05/20 09:01:14;;;;;;;1.88;1.73;;;;;;;23.44;45.34;101834.66;5061480;28;20127;-60
2022/05/20 09:03:40;;;;;;;3.03;1.60;;;;;;;23.44;45.32;101829.38;5070086;28;20490;-61
2022/05/20 09:06:11;;;;;;;2.78;1.58;;;;;;;23.43;45.98;101830.25;5075867;28;20028;-60
2022/05/20 09:08:37;;;;;;;2.63;1.80;;;;;;;23.42;45.74;101828.47;5053306;28;20469;-60
2022/05/20 09:11:05;;;;;;;2.70;2.08;;;;;;;23.43;45.33;101819.72;5073840;28;20048;-60
2022/05/20 09:16:24;;;;;;;2.13;1.63;;;;;;;23.42;45.24;101818.88;5073121;28;20042;-62
2022/05/20 09:19:23;;;;;;;4.53;1.55;;;;;;;23.43;45.58;101819.72;5064288;28;20497;-60
2022/05/20 09:22:07;;;;;;;1.77;1.67;;;;;;;23.42;44.98;101823.22;5078972;28;20036;-60
2022/05/20 09:24:39;;;;;;;3.28;1.50;;;;;;;23.42;44.71;101812.72;5054728;28;20035;-61
2022/05/20 09:27:19;;;;;;;1.95;1.77;;;;;;;23.42;45.13;101828.47;5047541;28;20082;-60
2022/05/20 09:29:55;;;;;;;6.45;1.90;;;;;;;23.44;45.58;101826.75;5058282;28;20043;-60
2022/05/20 09:32:28;;;;;;;1.80;1.58;;;;;;;23.46;44.77;101830.28;5068593;28;20082;-60
2022/05/20 09:35:21;;;;;;;1.50;1.13;;;;;;;23.45;44.68;101823.28;5052457;28;20036;-59
2022/05/20 09:37:49;;;;;;;2.22;1.83;;;;;;;23.48;44.98;101823.31;5070221;28;20044;-60
2022/05/20 09:40:41;;;;;;;2.60;1.88;;;;;;;23.44;45.44;101813.63;5061187;28;20634;-60
2022/05/20 09:43:19;;;;;;;2.50;2.08;;;;;;;23.47;44.79;101811.94;5053487;28;20028;-60
2022/05/20 09:45:49;;;;;;;2.65;1.80;;;;;;;23.46;45.12;101814.53;5089612;28;20472;-60
2022/05/20 09:48:46;;;;;;;1.92;1.83;;;;;;;23.49;45.47;101804.03;5057025;28;20430;-60
2022/05/20 09:51:15;;;;;;;2.08;1.70;;;;;;;23.47;44.66;101784.75;5070066;28;20036;-60
2022/05/20 09:53:44;;;;;;;2.92;1.30;;;;;;;23.47;45.24;101777.75;5069714;28;20505;-60
2022/05/20 09:56:13;;;;;;;2.00;1.70;;;;;;;23.47;45.23;101771.59;5044575;28;20376;-59
2022/05/20 09:58:39;;;;;;;2.97;1.58;;;;;;;23.46;44.63;101761.94;5052082;28;20076;-60
2022/05/20 10:01:10;;;;;;;2.38;2.00;;;;;;;23.49;45.19;101764.59;5085405;28;20123;-60
2022/05/20 10:03:47;;;;;;;3.00;1.95;;;;;;;23.52;44.92;101761.16;5066623;28;20032;-60
2022/05/20 10:06:38;;;;;;;1.55;1.45;;;;;;;23.47;44.66;101747.94;5048183;28;20377;-60
2022/05/20 10:09:25;;;;;;;2.45;1.70;;;;;;;23.50;44.77;101742.72;5083482;28;20047;-60
2022/05/20 10:12:02;;;;;;;2.47;2.05;;;;;;;23.52;44.88;101755.91;5063236;28;20051;-60
2022/05/20 10:14:42;;;;;;;4.00;1.83;;;;;;;23.55;44.85;101750.69;5068830;28;20032;-59
2022/05/20 10:17:29;;;;;;;2.97;1.42;;;;;;;23.58;44.65;101756.84;5048039;28;20028;-58
2022/05/20 10:20:06;;;;;;;1.77;1.50;;;;;;;23.59;44.98;101748.09;5090556;28;20368;-59
2022/05/20 10:23:00;;;;;;;4.50;1.92;;;;;;;23.62;45.33;101747.25;5077083;28;20066;-59
2022/05/20 10:25:34;;;;;;;7.25;1.88;;;;;;;23.64;44.93;101750.78;5057738;28;20052;-54
2022/05/20 10:32:34;;;;;;;1.70;1.60;;;;;;;23.64;45.15;101746.41;5056892;28;20157;-59
2022/05/20 10:33:47;;;;;;;;;;;;;;;23.67;45.44;101755.19;5078292;28;20047;-56
2022/05/20 10:36:37;;;;;;;4.93;1.50;;;;;;;23.69;44.53;101756.09;5053062;28;19916;-57
2022/05/20 10:39:16;;;;;;;2.47;1.83;;;;;;;23.69;45.09;101753.47;5077408;28;20036;-56
2022/05/20 10:42:10;;;;;;;4.10;2.10;;;;;;;23.70;44.69;101761.38;5057330;28;20790;-58
2022/05/20 10:50:27;;;;;;;1.92;1.77;;;;;;;23.50;43.75;101726.94;5088603;28;20035;-55
2022/05/20 10:53:17;;;;;;;3.10;2.47;;;;;;;23.29;42.06;101723.16;5081385;28;20060;-58
2022/05/20 10:55:58;;;;;;;2.83;2.20;;;;;;;23.23;41.47;101717.78;5057655;28;20081;-58
2022/05/20 10:58:34;;;;;;;1.83;1.52;;;;;;;23.24;42.61;101722.22;5058045;28;20036;-59
2022/05/20 11:01:07;;;;;;;3.55;1.98;;;;;;;23.25;41.93;101721.38;5047613;28;20444;-57
2022/05/20 11:03:48;;;;;;;13.48;3.70;;;;;;;23.31;41.90;101716.19;5065255;28;20040;-58
2022/05/20 11:06:42;;;;;;;7.05;4.32;;;;;;;23.27;40.99;101719.63;5085585;28;20371;-61
2022/05/20 11:09:25;;;;;;;10.43;5.32;;;;;;;23.24;40.51;101703.81;5047746;28;20033;-62
2022/05/20 11:12:04;;;;;;;8.27;7.45;;;;;;;23.26;40.62;101691.59;5065690;28;20454;-61
2022/05/20 11:14:45;;;;;;;18.63;12.25;;;;;;;23.43;40.43;101701.44;5067541;28;20473;-60
2022/05/20 11:17:32;;;;;;;9.27;6.68;;;;;;;23.47;39.73;101700.59;5085457;28;20062;-63
2022/05/20 11:20:21;;;;;;;13.63;6.20;;;;;;;23.52;40.48;101698.91;5083656;28;20476;-60
2022/05/20 11:23:02;;;;;;;5.07;3.95;;;;;;;23.61;40.19;101698.16;5064870;28;20059;-61
2022/05/20 11:25:48;;;;;;;5.88;3.10;;;;;;;23.46;39.31;101690.97;5067212;28;20487;-61
2022/05/20 11:28:20;;;;;;;7.03;2.78;;;;;;;23.50;39.53;101684.88;5068901;28;20482;-61
2022/05/20 11:30:53;;;;;;;2.30;2.10;;;;;;;23.33;38.92;101682.06;5084832;28;20035;-61
2022/05/20 11:33:34;;;;;;;2.47;2.10;;;;;;;23.46;40.10;101683.06;5080247;28;20150;-73
2022/05/20 11:36:19;;;;;;;3.10;2.42;;;;;;;23.57;39.83;101689.34;5087537;28;20028;-60
2022/05/20 11:39:00;;;;;;;2.78;2.25;;;;;;;23.58;39.24;101680.59;5066362;28;20393;-69
2022/05/20 11:41:47;;;;;;;4.32;1.58;;;;;;;23.56;38.61;101684.94;5086647;28;20035;-69
2022/05/20 11:44:28;;;;;;;2.78;2.17;;;;;;;23.54;39.88;101670.91;5054896;28;20032;-74
2022/05/20 11:47:12;;;;;;;3.47;2.55;;;;;;;23.53;38.43;101663.88;5084871;28;20028;-70
2022/05/20 11:49:47;;;;;;;4.00;2.20;;;;;;;23.56;39.15;101663.03;5067894;28;20111;-65
2022/05/20 11:52:47;;;;;;;2.45;2.25;;;;;;;23.62;38.42;101661.34;5079825;28;20485;-63
2022/05/20 11:55:41;;;;;;;3.75;2.33;;;;;;;23.32;38.02;101644.34;5065063;28;20476;-63
2022/05/20 11:58:14;;;;;;;3.30;1.77;;;;;;;23.43;39.42;101646.22;5046217;28;20439;-64
2022/05/20 12:00:41;;;;;;;1.77;1.63;;;;;;;23.52;39.39;101641.06;5050684;28;20546;-64
2022/05/20 12:03:13;;;;;;;2.80;2.53;;;;;;;23.51;39.34;101644.56;5082041;28;20370;-64
2022/05/20 12:05:41;;;;;;;2.20;2.00;;;;;;;23.44;39.01;101642.75;5065479;28;20123;-63
2022/05/20 12:08:07;;;;;;;3.92;2.05;;;;;;;23.41;38.78;101627.81;5064172;28;20115;-64
2022/05/20 12:10:51;;;;;;;2.33;1.80;;;;;;;23.37;38.63;101619.88;5044246;28;20077;-63
2022/05/20 12:14:00;;;;;;;1.67;1.60;;;;;;;23.47;39.99;101616.47;5068543;28;20496;-67
2022/05/20 12:16:25;;;;;;;3.13;2.00;;;;;;;23.49;39.21;101612.13;5068556;28;20036;-66
2022/05/20 12:24:55;;;;;;;2.47;2.28;;;;;;;23.48;39.07;101591.97;5087638;28;20129;-60